Flight Track Log - Related Links

Times and Time Zones

All times are in EST time to prevent confusion due to time zone crossing. See the N29MF flight status page for this flight to view local times or setup timezone preferences in your user account.

Time Position Orientation Groundspeed Altitude Reporting Facility
EST Latitude Longitude Course Direction KTS MPH feet Rate Location/Type
Mon 03:38:49 PM 32.0574 -101.3262 270° West  Level FlightAware Approximate
Mon 03:39:49 PM 32.0599 -101.2657 270° West  Level FlightAware Approximate
Mon 03:40:49 PM 32.0624 -101.2031 269° West  Level FlightAware Approximate
Mon 03:41:49 PM 32.0650 -101.1406 269° West  Level FlightAware Approximate
Mon 03:43:30 PM 32.0556 -101.8522 88° East 161 185 9,200  Level Fort Worth Center
Mon 03:44:30 PM 32.0575 -101.7983 88° East 161 185 10,000 750 Climbing Fort Worth Center
Mon 03:45:30 PM 32.0594 -101.7422 88° East 161 185 10,700 500 Climbing Fort Worth Center
Mon 03:46:30 PM 32.0614 -101.6811 86° East 167 192 11,000 150 Climbing Fort Worth Center
Mon 03:47:30 PM 32.0658 -101.6100 86° East 192 221 11,000  Level Fort Worth Center
Mon 03:48:30 PM 32.0706 -101.5367 90° East 207 238 11,000  Level Fort Worth Center
Mon 03:49:30 PM 32.0708 -101.4633 86° East 218 251 11,000  Level Fort Worth Center
Mon 03:50:30 PM 32.0753 -101.3900 88° East 223 257 11,000  Level Fort Worth Center
Mon 03:51:30 PM 32.0775 -101.3142 88° East 223 257 11,000 50 Level Fort Worth Center
Mon 03:52:30 PM 32.0797 -101.2431 86° East 223 257 11,100 50 Climbing Fort Worth Center
Mon 03:53:30 PM 32.0842 -101.1672 90° East 218 251 11,100  Level Fort Worth Center
Mon 03:54:30 PM 32.0842 -101.0936 86° East 218 251 11,100  Level Fort Worth Center
Mon 03:55:30 PM 32.0883 -101.0228 88° East 218 251 11,100  Level Fort Worth Center
Mon 03:56:30 PM 32.0900 -100.9639 88° East 218 251 11,100  Level Fort Worth Center
Mon 03:57:30 PM 32.0922 -100.8856 88° East 218 251 11,100  Level Fort Worth Center
Mon 03:58:30 PM 32.0942 -100.8144 88° East 218 251 11,100 -50 Level Fort Worth Center
Mon 03:59:30 PM 32.0961 -100.7436 86° East 218 251 11,000 -50 Descending Fort Worth Center
Mon 04:00:30 PM 32.1000 -100.6725 88° East 218 251 11,000  Level Fort Worth Center
Mon 04:01:30 PM 32.1017 -100.6039 88° East 218 251 11,000  Level Fort Worth Center
Mon 04:02:30 PM 32.1036 -100.5306 88° East 218 251 11,000  Level Fort Worth Center
Mon 04:03:30 PM 32.1053 -100.4594 88° East 218 251 11,000  Level Fort Worth Center
Mon 04:04:30 PM 32.1069 -100.3883 88° East 218 251 11,000  Level Fort Worth Center
Mon 04:05:30 PM 32.1086 -100.3172 88° East 213 245 11,000  Level Fort Worth Center
Mon 04:06:30 PM 32.1103 -100.2486 87° East 213 245 11,000  Level Fort Worth Center
Mon 04:07:30 PM 32.1139 -100.1753 88° East 213 245 11,000  Level Fort Worth Center
Mon 04:08:30 PM 32.1156 -100.1067 89° East 213 245 11,000  Level Fort Worth Center
Mon 04:09:31 PM 32.1169 -100.0356 87° East 213 245 11,000  Level Fort Worth Center
Mon 04:10:30 PM 32.1206 -99.9644 89° East 213 245 11,000 303 Level Fort Worth Center
Mon 04:11:30 PM 32.1219 -99.8933 89° East 199 229 11,600 500 Climbing Fort Worth Center
Mon 04:12:30 PM 32.1233 -99.8297 91° East 192 221 12,000 200 Climbing Fort Worth Center
Mon 04:13:30 PM 32.1222 -99.7658 87° East 219 252 12,000 250 Level Fort Worth Center
Mon 04:14:30 PM 32.1256 -99.6972 89° East 214 246 12,500 450 Climbing Fort Worth Center
Mon 04:15:30 PM 32.1267 -99.6358 89° East 202 232 12,900 250 Climbing Fort Worth Center
Mon 04:16:30 PM 32.1281 -99.5697 87° East 197 227 13,000 50 Climbing Fort Worth Center
Mon 04:17:30 PM 32.1311 -99.4986 87° East 197 227 13,000  Level Fort Worth Center
Mon 04:18:30 PM 32.1344 -99.4275 91° East 203 234 13,000  Level Fort Worth Center
Mon 04:19:30 PM 32.1336 -99.3564 89° East 208 239 13,000  Level Fort Worth Center
Mon 04:20:30 PM 32.1347 -99.2853 87° East 213 245 13,000 -50 Level Fort Worth Center
Mon 04:21:30 PM 32.1378 -99.2167 89° East 213 245 12,900 -50 Descending Fort Worth Center
Mon 04:22:30 PM 32.1386 -99.1456 87° East 213 245 12,900  Level Fort Worth Center
Mon 04:23:30 PM 32.1417 -99.0769 89° East 213 245 12,900  Level Fort Worth Center
Mon 04:24:30 PM 32.1428 -99.0058 89° East 213 245 12,900  Level Fort Worth Center
Mon 04:25:30 PM 32.1436 -98.9369 89° East 213 245 12,900  Level Fort Worth Center
Mon 04:26:30 PM 32.1444 -98.8683 87° East 213 245 12,900  Level Fort Worth Center
Mon 04:27:30 PM 32.1472 -98.7972 89° East 213 245 12,900  Level Fort Worth Center
Mon 04:28:30 PM 32.1481 -98.7286 89° East 213 245 12,900  Level Fort Worth Center
Mon 04:29:30 PM 32.1486 -98.6600 87° East 213 245 12,900  Level Fort Worth Center
Mon 04:30:30 PM 32.1514 -98.5911 91° East 213 245 12,900  Level Fort Worth Center
Mon 04:31:30 PM 32.1500 -98.5225 88° East 213 245 12,900  Level Fort Worth Center
Mon 04:32:30 PM 32.1525 -98.4539 91° East 213 245 12,900  Level Fort Worth Center
Mon 04:33:30 PM 32.1511 -98.3728 87° East 218 251 12,900 -200 Level Fort Worth Center
Mon 04:34:30 PM 32.1539 -98.3042 90° East 218 251 12,500 -300 Descending Fort Worth Center
Mon 04:35:30 PM 32.1542 -98.2331 89° East 218 251 12,300 -300 Descending Fort Worth Center
Mon 04:36:30 PM 32.1547 -98.1619 90° East 218 251 11,900 -400 Descending Fort Worth Center
Mon 04:37:30 PM 32.1550 -98.0858 87° East 218 251 11,500 -400 Descending Fort Worth Center
Mon 04:38:30 PM 32.1575 -98.0194 88° East 218 251 11,100 -250 Descending Fort Worth Center
Mon 04:39:30 PM 32.1600 -97.9411 90° East 218 251 11,000 -50 Descending Fort Worth Center
Mon 04:40:30 PM 32.1603 -97.8772 90° East 213 245 11,000  Level Fort Worth Center
Mon 04:41:30 PM 32.1606 -97.8011 90° East 213 245 11,000  Level Fort Worth Center
Mon 04:42:30 PM 32.1608 -97.7372 86° East 213 245 11,000  Level Fort Worth Center
Mon 04:43:30 PM 32.1650 -97.6589 88° East 213 245 11,000  Level Fort Worth Center
Mon 04:44:30 PM 32.1672 -97.5975 88° East 213 245 11,000  Level Fort Worth Center
Mon 04:45:30 PM 32.1694 -97.5214 92° East 213 245 11,000  Level Fort Worth Center
Mon 04:46:30 PM 32.1675 -97.4600 88° East 213 245 11,000  Level Fort Worth Center
Mon 04:47:30 PM 32.1694 -97.3839 88° East 213 245 11,000  Level Fort Worth Center
Mon 04:48:30 PM 32.1717 -97.3225 90° East 213 245 11,000  Level Fort Worth Center
Mon 04:49:30 PM 32.1714 -97.2464 88° East 213 245 11,000  Level Fort Worth Center
Mon 04:50:30 PM 32.1733 -97.1778 88° East 213 245 11,000  Level Fort Worth Center
Mon 04:51:30 PM 32.1753 -97.1114 90° East 213 245 11,000 -250 Level Fort Worth Center
Mon 04:52:30 PM 32.1753 -97.0378 86° East 213 245 10,500 -450 Descending Fort Worth Center
Mon 04:53:30 PM 32.1792 -96.9717 90° East 213 245 10,100 -400 Descending Fort Worth Center
Mon 04:54:30 PM 32.1789 -96.8981 90° East 213 245 9,700 -400 Descending Fort Worth Center
Mon 04:55:30 PM 32.1786 -96.8292 88° East 213 245 9,300 -350 Descending Fort Worth Center
Mon 04:56:30 PM 32.1803 -96.7628 88° East 213 245 9,000 -150 Descending Fort Worth Center
Mon 04:57:30 PM 32.1822 -96.6992 91° East 213 245 9,000 -50 Level Fort Worth Center
Mon 04:58:30 PM 32.1817 -96.6303 88° East 207 238 8,900 -250 Descending Fort Worth Center
Mon 04:59:30 PM 32.1833 -96.5667 91° East 197 227 8,500 -400 Descending Fort Worth Center
Mon 05:00:30 PM 32.1828 -96.4978 88° East 197 227 8,100 -400 Descending Fort Worth Center
Mon 05:01:30 PM 32.1844 -96.4339 86° East 204 235 7,700 -450 Descending Fort Worth Center
Mon 05:02:30 PM 32.1881 -96.3653 91° East 204 235 7,200 -500 Descending Fort Worth Center
Mon 05:03:30 PM 32.1875 -96.2989 89° East 204 235 6,700 -500 Descending Fort Worth Center
Mon 05:04:30 PM 32.1889 -96.2303 84° East 204 235 6,200 -350 Descending Fort Worth Center
Mon 05:05:30 PM 32.1947 -96.1639 73° East 204 235 6,000 -99 Descending Fort Worth Center
Mon 05:06:31 PM 32.2108 -96.1022 71° East 194 223 6,000  Level Fort Worth Center
Mon 05:07:30 PM 32.2289 -96.0406 78° East 185 213 6,000  Level Fort Worth Center
Mon 05:08:30 PM 32.2386 -95.9864 77° East 185 213 6,000  Level Fort Worth Center
Mon 05:09:30 PM 32.2525 -95.9150 78° East 194 223 6,000 -200 Level Fort Worth Center
Mon 05:10:30 PM 32.2642 -95.8508 76° East 194 223 5,600 -500 Descending Fort Worth Center
Mon 05:11:30 PM 32.2781 -95.7842 74° East 205 236 5,000 -450 Descending Fort Worth Center
Mon 05:12:30 PM 32.2919 -95.7250 75° East 200 230 4,700 -350 Descending Fort Worth Center
Mon 05:13:30 PM 32.3036 -95.6733 81° East 195 224 4,300 -350 Descending Fort Worth Center
Mon 05:14:30 PM 32.3131 -95.6042 77° East 195 224 4,000 850 Descending Fort Worth Center
Mon 05:15:30 PM 32.3247 -95.5425 73° East 195 224 6,000 1,000 Climbing Fort Worth Center
Mon 05:16:30 PM 32.3406 -95.4806 75° East 195 224 6,000  Level Fort Worth Center
Mon 05:17:30 PM 32.3542 -95.4189 74° East 195 224 6,000  Level Fort Worth Center
Mon 05:18:30 PM 32.3600 -95.3942 74° East 195 224 6,000  Level Fort Worth Center

Login

Don't have an account? Register now (free) for customized features, flight alerts, and more!